• Join FlightAware (Why Join?)
  • Login
  • US Flag 
08:22PM EDT


 

Airport Tracker/Info


-or-


 

Live Flight TrackerFlight Track Log ✈ SWA259 ✈ 23-Oct-2013 ✈ KOAK - KMDW

Flight Track Log - Related Links

Times and Time Zones

All times are in EDT time to prevent confusion due to time zone crossing. See the SWA259 flight status page for this flight to view local times or setup timezone preferences in your user account.

Time Position Orientation Groundspeed Altitude Reporting Facility
EDT Latitude Longitude Course Direction KTS MPH feet Rate Location/Type
09:33AM 37.7270 -122.2600 289° West 178 205 1,200  Level FlightAware
09:33AM 37.7370 -122.3020 287° West 236 272 2,100 1,860 Climbing FlightAware
09:34AM 37.7440 -122.3350 285° West 253 291 3,100 2,640 Climbing FlightAware
09:34AM 37.7770 -122.3790 314° West 275 316 5,000 3,000 Climbing FlightAware
09:35AM 37.8160 -122.3800 359° North 281 323 6,700 3,000 Climbing FlightAware
09:36AM 37.8730 -122.3720 North 299 344 8,800 2,640 Climbing FlightAware
09:36AM 37.8950 -122.2970 70° East 323 372 10,700 1,980 Climbing FlightAware
09:37AM 37.9050 -122.2270 80° East 364 419 11,500 2,040 Climbing FlightAware
09:37AM 37.9150 -122.1600 79° East 371 427 13,100 2,880 Climbing FlightAware
09:38AM 37.9290 -122.0670 79° East 382 440 15,100 2,760 Climbing FlightAware
09:39AM 37.9410 -121.9800 80° East 389 448 16,800 2,460 Climbing FlightAware
09:39AM 37.9470 -121.9380 80° East 394 453 17,600 2,640 Climbing FlightAware
09:40AM 37.9640 -121.8190 80° East 399 459 19,900 2,460 Climbing FlightAware
09:41AM 37.9760 -121.7340 80° East 407 468 21,200 2,040 Climbing FlightAware
09:41AM 37.9900 -121.6280 80° East 416 479 22,700 1,800 Climbing FlightAware
09:42AM 38.0050 -121.5220 80° East 430 495 23,900 1,800 Climbing FlightAware
09:43AM 38.0210 -121.4210 79° East 433 498 25,200 1,860 Climbing FlightAware
09:43AM 38.0350 -121.3430 77° East 434 499 26,200 1,800 Climbing FlightAware
09:44AM 38.0530 -121.2490 76° East 437 503 27,300 1,620 Climbing FlightAware
09:44AM 38.0670 -121.1690 77° East 440 506 28,100 1,380 Climbing FlightAware
09:45AM 38.0910 -121.0360 77° East 446 513 29,300 1,380 Climbing FlightAware
09:46AM 38.1090 -120.9370 77° East 446 513 30,300 1,440 Climbing FlightAware
09:47AM 38.1270 -120.8400 77° East 446 513 31,200 1,320 Climbing FlightAware
09:47AM 38.1440 -120.7440 77° East 448 516 32,000 1,200 Climbing FlightAware
09:48AM 38.1640 -120.6310 77° East 449 517 32,900 1,140 Climbing FlightAware
09:49AM 38.1810 -120.5330 78° East 448 516 33,600 1,080 Climbing FlightAware
09:49AM 38.1980 -120.4400 77° East 448 516 34,300 1,140 Climbing FlightAware
09:50AM 38.2160 -120.3380 77° East 446 513 35,100 1,080 Climbing FlightAware
09:50AM 38.2330 -120.2360 78° East 445 512 35,800 960 Climbing FlightAware
09:51AM 38.2530 -120.1250 77° East 442 509 36,500 720 Climbing FlightAware
09:52AM 38.2750 -119.9940 78° East 443 510 37,000 300 Climbing FlightAware
09:53AM 38.2920 -119.8950 78° East 445 512 37,000  Level FlightAware
09:53AM 38.3110 -119.7810 78° East 445 512 37,000  Level FlightAware
09:54AM 38.3280 -119.6830 78° East 447 514 37,000  Level FlightAware
09:55AM 38.3440 -119.5830 78° East 448 516 37,000  Level FlightAware
09:55AM 38.3620 -119.4760 78° East 448 516 37,000  Level FlightAware
09:56AM 38.3770 -119.3850 78° East 449 517 37,000  Level FlightAware
09:57AM 38.3960 -119.2750 78° East 449 517 37,000  Level FlightAware
09:57AM 38.4110 -119.1850 78° East 449 517 37,000  Level FlightAware
09:58AM 38.4340 -119.0440 78° East 449 517 37,000  Level FlightAware
09:59AM 38.4500 -118.9450 78° East 448 516 37,000  Level FlightAware
10:00AM 38.4660 -118.8420 79° East 448 516 37,000  Level FlightAware
10:00AM 38.4840 -118.7290 78° East 446 513 37,000  Level FlightAware
10:01AM 38.4980 -118.6420 78° East 445 512 37,000  Level FlightAware
10:01AM 38.5150 -118.5380 78° East 444 511 37,000  Level FlightAware
10:02AM 38.5270 -118.4610 79° East 444 511 37,000  Level FlightAware
10:02AM 38.5390 -118.3840 79° East 443 510 37,000  Level FlightAware
10:03AM 38.5590 -118.2550 79° East 443 510 37,000  Level FlightAware
10:04AM 38.5760 -118.1460 79° East 443 510 37,000  Level FlightAware
10:05AM 38.5920 -118.0410 79° East 444 511 37,000  Level FlightAware
10:05AM 38.6010 -117.9820 79° East 445 512 37,000  Level FlightAware
10:06AM 38.6230 -117.8490 78° East 445 512 37,000  Level FlightAware
10:07AM 38.6360 -117.7700 78° East 445 512 37,000  Level FlightAware
10:07AM 38.6500 -117.6890 77° East 445 512 37,000  Level FlightAware
10:08AM 38.6630 -117.6080 78° East 445 512 37,000  Level FlightAware
10:09AM 38.6810 -117.5020 78° East 445 512 37,000  Level FlightAware
10:09AM 38.6940 -117.4230 78° East 445 512 37,000  Level FlightAware
10:10AM 38.7070 -117.3420 78° East 445 512 37,000  Level FlightAware
10:11AM 38.7240 -117.2390 78° East 445 512 37,000  Level FlightAware
10:11AM 38.7330 -117.1870 77° East 445 512 37,000  Level FlightAware
10:12AM 38.7520 -117.0750 78° East 445 512 37,000  Level FlightAware
10:13AM 38.7690 -116.9690 78° East 445 512 37,000  Level FlightAware
10:13AM 38.7820 -116.8900 78° East 445 512 37,000  Level FlightAware
10:14AM 38.8000 -116.7850 78° East 445 512 37,000  Level FlightAware
10:15AM 38.8130 -116.7060 78° East 445 512 37,000  Level FlightAware
10:15AM 38.8170 -116.6790 79° East 445 512 37,000  Level FlightAware
10:16AM 38.8553 -116.2147 79° East 460 529 37,000  Level Oakland Center
10:17AM 38.8764 -116.0597 80° East 459 528 37,000  Level Oakland Center
10:19AM 38.9033 -115.8611 80° East 457 526 37,000  Level Salt Lake Center
10:20AM 38.9247 -115.7014 80° East 454 522 37,000  Level Salt Lake Center
10:21AM 38.9453 -115.5419 81° East 453 521 37,000  Level Salt Lake Center
10:22AM 38.9672 -115.3733 80° East 452 520 37,000  Level Salt Lake Center
10:23AM 38.9886 -115.2125 80° East 455 524 37,000  Level Salt Lake Center
10:24AM 39.0100 -115.0517 80° East 458 527 37,000  Level Salt Lake Center
10:25AM 39.0300 -114.8917 81° East 455 524 37,000  Level Salt Lake Center
10:26AM 39.0500 -114.7292 81° East 458 527 37,000  Level Salt Lake Center
10:31AM 39.1750 -113.8650 81° East 451 519 37,000  Level FlightAware
10:31AM 39.1940 -113.7750 75° East 450 518 37,000  Level FlightAware
10:32AM 39.2240 -113.6240 76° East 451 519 37,000  Level FlightAware
10:33AM 39.2470 -113.5140 75° East 453 521 37,000  Level FlightAware
10:34AM 39.2680 -113.4100 75° East 454 522 37,000  Level FlightAware
10:34AM 39.2790 -113.3550 75° East 455 524 37,000  Level FlightAware
10:36AM 39.3250 -113.1220 76° East 456 525 37,000  Level FlightAware
10:36AM 39.3400 -113.0440 76° East 455 524 37,000  Level FlightAware
10:37AM 39.3560 -112.9660 75° East 454 522 37,000  Level FlightAware
10:37AM 39.3760 -112.8600 76° East 451 519 37,000  Level FlightAware
10:38AM 39.4000 -112.7420 75° East 448 516 37,000  Level FlightAware
10:39AM 39.4150 -112.6630 76° East 447 514 37,000  Level FlightAware
10:39AM 39.4320 -112.5740 76° East 447 514 37,000  Level FlightAware
10:40AM 39.4530 -112.4650 76° East 446 513 37,000  Level FlightAware
10:41AM 39.4770 -112.3420 76° East 447 514 37,000  Level FlightAware
10:41AM 39.4910 -112.2650 77° East 448 516 37,000  Level FlightAware
10:42AM 39.5060 -112.1850 76° East 448 516 37,000  Level FlightAware
10:43AM 39.5310 -112.0540 76° East 449 517 37,000  Level FlightAware
10:43AM 39.5510 -111.9510 76° East 451 519 37,000  Level FlightAware
10:44AM 39.5660 -111.8700 76° East 452 520 37,000  Level FlightAware
10:44AM 39.5880 -111.7480 77° East 453 521 37,000  Level FlightAware
10:45AM 39.5980 -111.6940 76° East 453 521 37,000  Level FlightAware
10:46AM 39.6200 -111.5750 76° East 457 526 37,000  Level FlightAware
10:46AM 39.6420 -111.4550 77° East 458 527 37,000  Level FlightAware
10:47AM 39.6600 -111.3560 77° East 458 527 37,000  Level FlightAware
10:48AM 39.6820 -111.2350 77° East 459 528 37,000  Level FlightAware
10:48AM 39.6940 -111.1640 78° East 460 529 37,000  Level FlightAware
10:49AM 39.7170 -111.0410 76° East 459 528 37,000  Level FlightAware
10:49AM 39.7320 -110.9560 77° East 460 529 37,000  Level FlightAware
10:50AM 39.7480 -110.8640 77° East 460 529 37,000  Level FlightAware
10:51AM 39.7680 -110.7530 77° East 461 531 37,000  Level FlightAware
10:51AM 39.7900 -110.6270 77° East 462 532 37,000  Level FlightAware
10:52AM 39.8060 -110.5320 78° East 462 532 37,000  Level FlightAware
10:53AM 39.8210 -110.4450 77° East 462 532 37,000  Level FlightAware
10:53AM 39.8370 -110.3500 78° East 462 532 37,000  Level FlightAware
10:54AM 39.8600 -110.2190 77° East 463 533 37,000  Level FlightAware
10:55AM 39.8770 -110.1170 78° East 463 533 37,000  Level FlightAware
10:55AM 39.8930 -110.0230 77° East 462 532 37,000  Level FlightAware
10:56AM 39.9140 -109.9000 77° East 462 532 37,000  Level FlightAware
10:57AM 39.9290 -109.8070 78° East 463 533 37,000  Level FlightAware
10:57AM 39.9500 -109.6830 78° East 464 534 37,000  Level FlightAware
10:58AM 39.9700 -109.5620 78° East 465 535 37,000  Level FlightAware
10:58AM 39.9790 -109.5050 78° East 465 535 37,000  Level FlightAware
10:59AM 40.0010 -109.3720 78° East 465 535 37,000  Level FlightAware
11:00AM 40.0180 -109.2680 78° East 465 535 37,000  Level FlightAware
11:00AM 40.0340 -109.1690 78° East 465 535 37,000  Level FlightAware
11:01AM 40.0500 -109.0660 78° East 465 535 37,000  Level FlightAware
11:02AM 40.0680 -108.9530 78° East 465 535 37,000  Level FlightAware
11:02AM 40.0860 -108.8410 78° East 465 535 37,000  Level FlightAware
11:03AM 40.1040 -108.7250 78° East 466 536 37,000  Level FlightAware
11:04AM 40.1220 -108.6090 78° East 466 536 37,000  Level FlightAware
11:04AM 40.1380 -108.5110 78° East 467 537 37,000  Level FlightAware
11:05AM 40.1550 -108.4010 79° East 468 539 37,000  Level FlightAware
11:06AM 40.1720 -108.2890 79° East 469 540 37,000  Level FlightAware
11:06AM 40.1860 -108.1950 79° East 471 542 37,000  Level FlightAware
11:07AM 40.2050 -108.0650 79° East 473 544 37,000  Level FlightAware
11:08AM 40.2210 -107.9630 78° East 474 545 37,000  Level FlightAware
11:08AM 40.2390 -107.8410 79° East 470 541 37,000  Level FlightAware
11:09AM 40.2530 -107.7420 79° East 470 541 37,000  Level FlightAware
11:10AM 40.2730 -107.6070 79° East 470 541 37,000  Level FlightAware
11:10AM 40.2880 -107.5050 79° East 467 537 37,000  Level FlightAware
11:11AM 40.2940 -107.4640 79° East 466 536 37,000  Level FlightAware
11:11AM 40.3140 -107.3250 79° East 466 536 37,000  Level FlightAware
11:12AM 40.3290 -107.2210 79° East 464 534 37,000  Level FlightAware
11:13AM 40.3410 -107.1380 79° East 463 533 37,000  Level FlightAware
11:13AM 40.3590 -107.0110 79° East 463 533 37,000  Level FlightAware
11:14AM 40.3750 -106.8970 80° East 462 532 37,000  Level FlightAware
11:15AM 40.3870 -106.8110 80° East 461 531 37,000  Level FlightAware
11:15AM 40.4020 -106.6990 80° East 459 528 37,000  Level FlightAware
11:16AM 40.4190 -106.5800 79° East 458 527 37,000  Level FlightAware
11:17AM 40.4320 -106.4840 80° East 458 527 37,000  Level FlightAware
11:17AM 40.4500 -106.3470 80° East 458 527 37,000  Level FlightAware
11:18AM 40.4620 -106.2580 80° East 457 526 37,000  Level FlightAware
11:19AM 40.4770 -106.1460 80° East 459 528 37,000  Level FlightAware
11:19AM 40.4850 -106.0830 81° East 459 528 37,000  Level FlightAware
11:20AM 40.5050 -105.9340 80° East 461 531 37,000  Level FlightAware
11:20AM 40.5170 -105.8440 80° East 464 534 37,000  Level FlightAware
11:21AM 40.5300 -105.7390 81° East 466 536 37,000  Level FlightAware
11:22AM 40.5430 -105.6400 80° East 468 539 37,000  Level FlightAware
11:23AM 40.5660 -105.4610 80° East 467 537 37,000  Level FlightAware
11:24AM 40.5840 -105.3140 81° East 461 531 37,000  Level FlightAware
11:24AM 40.6030 -105.1940 78° East 455 524 37,000  Level FlightAware
11:25AM 40.6390 -105.1030 62° Northeast 453 521 37,000  Level FlightAware
11:25AM 40.6710 -105.0260 61° Northeast 454 522 37,000  Level FlightAware
11:26AM 40.7180 -104.9160 61° Northeast 457 526 37,000  Level FlightAware
11:27AM 40.7640 -104.8060 61° Northeast 459 528 37,000  Level FlightAware
11:27AM 40.7980 -104.7280 60° Northeast 460 529 37,000  Level FlightAware
11:28AM 40.8420 -104.6350 58° Northeast 461 531 37,000  Level FlightAware
11:29AM 40.8770 -104.5630 57° Northeast 462 532 37,000  Level FlightAware
11:29AM 40.9340 -104.4440 58° Northeast 464 534 37,000  Level FlightAware
11:30AM 40.9740 -104.3580 58° Northeast 465 535 37,000  Level FlightAware
11:31AM 41.0290 -104.2410 58° Northeast 466 536 37,000  Level FlightAware
11:32AM 41.0760 -104.1390 59° Northeast 467 537 37,000  Level FlightAware
11:32AM 41.1130 -104.0610 58° Northeast 469 540 37,000  Level FlightAware
11:33AM 41.1480 -103.9850 59° Northeast 470 541 37,000  Level FlightAware
11:34AM 41.2120 -103.8490 58° Northeast 465 535 37,000  Level FlightAware
11:34AM 41.2600 -103.7450 58° Northeast 463 533 37,000  Level FlightAware
11:35AM 41.3040 -103.6490 59° Northeast 463 533 37,000  Level FlightAware
11:36AM 41.3500 -103.5500 58° Northeast 464 534 37,000  Level FlightAware
11:36AM 41.4080 -103.4250 58° Northeast 459 528 37,000  Level FlightAware
11:37AM 41.4570 -103.3180 59° Northeast 458 527 37,000  Level FlightAware
11:38AM 41.5010 -103.2190 59° Northeast 456 525 37,000  Level FlightAware
11:39AM 41.5360 -103.1440 58° Northeast 456 525 37,000  Level FlightAware
11:39AM 41.5710 -103.0710 57° Northeast 456 525 37,000  Level FlightAware
11:40AM 41.6060 -102.9960 58° Northeast 456 525 37,000  Level FlightAware
11:41AM 41.6510 -102.8980 58° Northeast 456 525 37,000  Level FlightAware
11:41AM 41.6390 -102.7390 96° East 473 544 37,000  Level FlightAware
11:42AM 41.6430 -102.6330 87° East 473 544 37,000  Level FlightAware
11:42AM 41.6460 -102.5480 87° East 471 542 37,000  Level FlightAware
11:42AM 41.6480 -102.4960 87° East 471 542 37,000  Level FlightAware
11:43AM 41.6530 -102.3750 87° East 471 542 37,000  Level FlightAware
11:44AM 41.6600 -102.1940 87° East 471 542 37,000  Level FlightAware
11:45AM 41.6640 -102.0320 88° East 472 543 37,000  Level FlightAware
11:46AM 41.6680 -101.9430 87° East 472 543 37,000  Level FlightAware
11:47AM 41.6730 -101.7940 87° East 472 543 37,000  Level FlightAware
11:47AM 41.6760 -101.7350 86° East 472 543 37,000  Level FlightAware
11:48AM 41.6800 -101.6180 87° East 472 543 37,000  Level FlightAware
11:49AM 41.6840 -101.5240 87° East 472 543 37,000  Level FlightAware
11:49AM 41.6890 -101.4040 87° East 472 543 37,000  Level FlightAware
11:50AM 41.6920 -101.3180 87° East 472 543 37,000  Level FlightAware
11:51AM 41.6970 -101.1980 87° East 472 543 37,000  Level FlightAware
11:51AM 41.7000 -101.1070 87° East 472 543 37,000  Level FlightAware
11:52AM 41.7050 -100.9920 87° East 472 543 37,000  Level FlightAware
11:53AM 41.7080 -100.9030 87° East 472 543 37,000  Level FlightAware
11:54AM 41.7130 -100.7840 87° East 472 543 37,000  Level FlightAware
11:54AM 41.7160 -100.6920 87° East 472 543 37,000  Level FlightAware
11:55AM 41.7190 -100.6270 86° East 472 543 37,000  Level FlightAware
11:55AM 41.7064 -100.2483 86° East 481 554 37,000  Level Denver Center
11:56AM 41.7089 -100.0778 89° East 480 552 37,000  Level Denver Center
11:57AM 41.7114 -99.9044 89° East 482 555 37,000  Level Denver Center
11:58AM 41.7128 -99.7028 89° East 484 557 37,000  Level Denver Center
11:59AM 41.7147 -99.5303 89° East 484 557 37,000  Level Denver Center
12:00PM 41.7161 -99.3292 89° East 483 556 37,000  Level Denver Center
12:01PM 41.7181 -99.1564 89° East 484 557 37,000  Level Denver Center
12:06PM 41.7200 -98.2660 89° East 501 577 37,000  Level FlightAware
12:07PM 41.7190 -98.1070 90° East 505 581 37,000 180 Level FlightAware
12:08PM 41.7190 -97.9830 90° East 507 583 37,300 300 Climbing FlightAware
12:08PM 41.7190 -97.8620 90° East 519 597 37,400 240 Climbing FlightAware
12:09PM 41.7180 -97.7710 91° East 524 603 37,600 420 Climbing FlightAware
12:10PM 41.7180 -97.6100 90° East 530 610 38,000 420 Climbing FlightAware
12:10PM 41.7170 -97.4660 90° East 538 619 38,300 360 Climbing FlightAware
12:11PM 41.7160 -97.4120 91° East 540 621 38,400 300 Climbing FlightAware
12:11PM 41.7140 -97.2350 91° East 537 618 38,700 240 Climbing FlightAware
12:12PM 41.7130 -97.1480 91° East 539 620 38,800 120 Climbing FlightAware
12:13PM 41.7100 -96.8990 91° East 537 618 39,000 60 Climbing FlightAware
12:14PM 41.7090 -96.7820 91° East 537 618 39,000  Level FlightAware
12:14PM 41.7070 -96.6610 91° East 537 618 39,000  Level FlightAware
12:15PM 41.7050 -96.5380 91° East 539 620 39,000  Level FlightAware
12:16PM 41.7010 -96.2920 91° East 541 623 39,000  Level FlightAware
12:17PM 41.6980 -96.1750 92° East 541 623 39,000  Level FlightAware
12:17PM 41.6960 -96.0540 91° East 540 621 39,000  Level FlightAware
12:18PM 41.6900 -95.9390 94° East 543 625 39,000  Level FlightAware
12:19PM 41.6800 -95.7920 95° East 538 619 39,000  Level FlightAware
12:19PM 41.6720 -95.6520 94° East 535 616 39,000  Level FlightAware
12:20PM 41.6650 -95.5350 95° East 534 615 39,000  Level FlightAware
12:21PM 41.6570 -95.3900 94° East 533 613 39,000  Level FlightAware
12:21PM 41.6480 -95.2490 95° East 532 612 39,000  Level FlightAware
12:22PM 41.6400 -95.1120 94° East 532 612 39,000  Level FlightAware
12:23PM 41.6330 -94.9940 94° East 531 611 39,000  Level FlightAware
12:24PM 41.6190 -94.7830 95° East 531 611 39,000  Level FlightAware
12:24PM 41.6120 -94.6750 95° East 530 610 39,000  Level FlightAware
12:25PM 41.6030 -94.5410 95° East 529 609 39,000  Level FlightAware
12:26PM 41.5960 -94.4370 95° East 528 608 39,000  Level FlightAware
12:26PM 41.5880 -94.3220 95° East 526 605 39,000  Level FlightAware
12:27PM 41.5820 -94.2300 95° East 524 603 39,000  Level FlightAware
12:27PM 41.5730 -94.1050 95° East 522 601 39,000  Level FlightAware
12:28PM 41.5650 -93.9930 95° East 525 604 39,000  Level FlightAware
12:29PM 41.5570 -93.8750 95° East 528 608 39,000  Level FlightAware
12:29PM 41.5470 -93.7480 96° East 530 610 39,000  Level FlightAware
12:30PM 41.5350 -93.5870 96° East 529 609 39,000  Level FlightAware
12:31PM 41.5150 -93.3330 96° East 528 608 39,000  Level FlightAware
12:32PM 41.5070 -93.2290 96° East 530 610 39,000  Level FlightAware
12:32PM 41.4970 -93.1040 96° East 530 610 39,000  Level FlightAware
12:33PM 41.4870 -92.9760 96° East 532 612 39,000  Level FlightAware
12:34PM 41.4790 -92.8850 97° East 533 613 39,000 -360 Level FlightAware
12:34PM 41.4690 -92.7570 96° East 532 612 38,600 -840 Descending FlightAware
12:35PM 41.4560 -92.6160 97° East 532 612 37,900 -1,020 Descending FlightAware
12:36PM 41.4460 -92.4980 96° East 529 609 37,300 -1,020 Descending FlightAware
12:36PM 41.4350 -92.3640 96° East 534 615 36,600 -1,020 Descending FlightAware
12:37PM 41.4240 -92.2410 97° East 544 626 36,000 -960 Descending FlightAware
12:38PM 41.4140 -92.1200 96° East 550 633 35,500 -900 Descending FlightAware
12:38PM 41.4030 -91.9900 96° East 551 634 34,900 -1,020 Descending FlightAware
12:39PM 41.3920 -91.8810 98° East 536 617 34,300 -1,200 Descending FlightAware
12:40PM 41.3770 -91.7240 97° East 537 618 33,300 -1,140 Descending FlightAware
12:40PM 41.3630 -91.5720 97° East 538 619 32,500 -1,080 Descending FlightAware
12:41PM 41.3550 -91.4870 97° East 537 618 32,100 -900 Descending FlightAware
12:42PM 41.3310 -91.2420 97° East 529 609 31,000 -1,500 Descending FlightAware
12:43PM 41.3190 -91.1150 97° East 520 598 29,300 -2,520 Descending FlightAware
12:43PM 41.3090 -91.0110 97° East 512 589 28,000 -2,340 Descending FlightAware
12:44PM 41.3000 -90.9200 97° East 505 581 26,900 -2,280 Descending FlightAware
12:44PM 41.2900 -90.8160 97° East 497 572 25,500 -2,280 Descending FlightAware
12:45PM 41.2780 -90.6980 98° East 485 558 24,100 -1,620 Descending FlightAware
12:45PM 41.2690 -90.6080 98° East 465 535 23,700 -960 Descending FlightAware
12:46PM 41.2570 -90.4920 98° East 460 529 23,000 -1,020 Descending FlightAware
12:47PM 41.2460 -90.3880 98° East 471 542 22,400 -960 Descending FlightAware
12:47PM 41.2360 -90.2900 98° East 474 545 21,900 -900 Descending FlightAware
12:48PM 41.2260 -90.1990 98° East 468 539 21,400 -960 Descending FlightAware
12:49PM 41.2130 -90.0780 98° East 461 531 20,700 -1,080 Descending FlightAware
12:49PM 41.2030 -89.9810 98° East 456 525 20,100 -1,320 Descending FlightAware
12:50PM 41.1900 -89.8640 98° East 447 514 19,000 -1,980 Descending FlightAware
12:51PM 41.1770 -89.7430 98° East 436 502 17,200 -2,460 Descending FlightAware
12:51PM 41.1640 -89.6270 98° East 431 496 15,400 -1,800 Descending FlightAware
12:52PM 41.1640 -89.5340 90° East 401 461 14,800 -1,020 Descending FlightAware
12:53PM 41.1710 -89.4310 85° East 392 451 14,100 -1,020 Descending FlightAware
12:53PM 41.1780 -89.3160 85° East 386 444 13,300 -1,080 Descending FlightAware
12:54PM 41.1830 -89.2350 85° East 382 440 12,700 -1,020 Descending FlightAware
12:54PM 41.1880 -89.1720 84° East 382 440 12,300 -960 Descending FlightAware
12:55PM 41.1930 -89.0860 86° East 378 435 11,700 -1,080 Descending FlightAware
12:56PM 41.1990 -89.0000 85° East 366 421 11,000 -1,200 Descending FlightAware
12:56PM 41.2040 -88.9220 85° East 353 406 10,300 -900 Descending FlightAware
12:57PM 41.2190 -88.8370 77° East 346 398 9,900 -300 Descending FlightAware
12:58PM 41.2550 -88.7680 55° Northeast 343 395 9,900  Level FlightAware
12:58PM 41.2830 -88.7160 54° Northeast 315 362 9,900 -600 Level FlightAware
12:59PM 41.3170 -88.6510 55° Northeast 288 331 9,200 -1,320 Descending FlightAware
01:00PM 41.3470 -88.5960 54° Northeast 292 336 8,100 -1,380 Descending FlightAware
01:00PM 41.3770 -88.5480 50° Northeast 274 315 7,500 -1,080 Descending FlightAware
01:01PM 41.4020 -88.5150 45° Northeast 267 307 7,000 -1,260 Descending FlightAware
01:01PM 41.4400 -88.4640 45° Northeast 263 303 6,000 -840 Descending FlightAware
01:02PM 41.4700 -88.4220 46° Northeast 260 299 5,900 -120 Descending FlightAware
01:03PM 41.5000 -88.3820 45° Northeast 262 302 5,900  Level FlightAware
01:03PM 41.5300 -88.3410 46° Northeast 264 304 5,900  Level FlightAware
01:04PM 41.5400 -88.2600 81° East 277 319 5,900 -480 Level FlightAware
01:05PM 41.5390 -88.1930 91° East 275 316 5,200 -660 Descending FlightAware
01:06PM 41.5390 -88.1020 90° East 273 314 4,900 -240 Descending FlightAware
01:06PM 41.5390 -88.0480 90° East 273 314 4,900  Level FlightAware
01:07PM 41.5390 -87.9740 90° East 274 315 4,900  Level FlightAware
01:07PM 41.5380 -87.9020 91° East 276 318 4,900 -420 Level FlightAware
01:08PM 41.5380 -87.8690 90° East 277 319 4,500 -840 Descending FlightAware
01:08PM 41.5380 -87.8250 90° East 265 305 4,300 -540 Descending FlightAware
01:09PM 41.5450 -87.7540 82° East 240 276 3,900 -300 Descending FlightAware
01:10PM 41.5520 -87.7040 79° East 234 269 3,900  Level FlightAware
01:10PM 41.5600 -87.6580 77° East 231 266 3,900  Level FlightAware
01:11PM 41.5680 -87.6300 69° East 229 264 3,900 -300 Level FlightAware
01:12PM 41.5880 -87.5530 71° East 195 224 3,500 -600 Descending FlightAware
01:12PM 41.6060 -87.5290 45° Northeast 171 197 3,000 -480 Descending FlightAware
01:13PM 41.6320 -87.5480 331° Northwest 178 205 3,000 -120 Level FlightAware
01:13PM 41.6620 -87.5780 323° Northwest 179 206 2,900 -120 Descending FlightAware
01:14PM 41.6820 -87.6070 313° West 172 198 2,900  Level FlightAware
01:15PM 41.6990 -87.6320 312° West 173 199 2,900 -480 Level FlightAware
01:15PM 41.7180 -87.6580 314° West 162 186 2,400 -780 Descending FlightAware
01:16PM 41.7300 -87.6750 313° West 137 158 2,100 -720 Descending FlightAware
01:16PM 41.7470 -87.6990 314° West 125 144 1,600 -840 Descending FlightAware
01:17PM 41.7590 -87.7150 315° West 129 148 1,200 -780 Descending FlightAware
01:17PM 41.7710 -87.7320 313° West 128 147 900 -420 Descending FlightAware
01:18PM 41.7830 -87.7500 312° West 132 152 800 -180 Descending FlightAware